createdAt,value
2022-09-05T00:03:28.299Z,19.90
2022-09-05T00:09:43.917Z,20.00
2022-09-05T00:15:49.799Z,19.90
2022-09-05T00:24:32.631Z,19.90
2022-09-05T00:28:26.009Z,19.80
2022-09-05T00:34:48.092Z,19.70
2022-09-05T00:40:45.657Z,19.60
2022-09-05T00:46:44.407Z,19.60
2022-09-05T00:52:45.727Z,19.60
2022-09-05T00:59:29.538Z,19.50
2022-09-05T01:05:39.330Z,19.40
2022-09-05T01:11:42.561Z,19.30
2022-09-05T01:17:51.324Z,19.30
2022-09-05T01:24:28.047Z,19.30
2022-09-05T01:30:31.739Z,19.30
2022-09-05T01:36:47.259Z,19.00
2022-09-05T01:42:44.335Z,19.20
2022-09-05T01:48:48.981Z,19.10
2022-09-05T01:54:58.547Z,18.90
2022-09-05T02:01:26.999Z,19.00
2022-09-05T02:07:31.750Z,18.90
2022-09-05T02:13:33.331Z,18.90
2022-09-05T02:19:31.288Z,18.90
2022-09-05T02:26:02.863Z,18.70
2022-09-05T02:31:49.032Z,18.80
2022-09-05T02:38:23.905Z,18.60
2022-09-05T02:45:19.009Z,18.80
2022-09-05T02:57:20.231Z,18.70
2022-09-05T02:58:05.650Z,18.70
2022-09-05T03:03:28.049Z,18.70
2022-09-05T03:09:37.378Z,18.70
2022-09-05T03:16:04.817Z,18.80
2022-09-05T03:22:36.196Z,18.70
2022-09-05T03:29:29.880Z,18.70
2022-09-05T03:36:18.994Z,18.60
2022-09-05T03:42:36.901Z,18.60
2022-09-05T03:50:37.226Z,18.60
2022-09-05T03:57:23.406Z,18.60
2022-09-05T04:06:44.150Z,18.60
2022-09-05T04:08:38.495Z,18.60
2022-09-05T04:14:42.727Z,18.60
2022-09-05T04:20:44.249Z,18.60
2022-09-05T04:26:51.703Z,18.50
2022-09-05T04:32:54.813Z,18.60
2022-09-05T04:39:09.997Z,18.50
2022-09-05T04:45:12.110Z,18.50
2022-09-05T04:51:12.792Z,18.50
2022-09-05T04:57:22.273Z,18.60
2022-09-05T05:06:18.909Z,18.50
2022-09-05T05:09:38.523Z,18.60
2022-09-05T05:18:13.109Z,18.50
2022-09-05T05:21:52.925Z,18.50
2022-09-05T05:27:50.682Z,18.60
2022-09-05T05:33:47.496Z,18.50
2022-09-05T05:39:45.555Z,18.60
2022-09-05T05:45:39.104Z,18.50
2022-09-05T05:52:02.233Z,18.60
2022-09-05T05:58:19.430Z,18.60
2022-09-05T06:04:50.566Z,18.60
2022-09-05T06:14:49.647Z,18.50
2022-09-05T06:17:50.057Z,18.50
2022-09-05T06:24:21.146Z,18.60
2022-09-05T06:30:20.974Z,18.70
2022-09-05T06:36:32.628Z,18.80
2022-09-05T06:42:43.590Z,18.90
2022-09-05T06:49:31.114Z,19.00
2022-09-05T06:55:42.198Z,18.90
2022-09-05T07:01:59.560Z,19.00
2022-09-05T07:07:59.229Z,19.10
2022-09-05T07:14:19.620Z,19.10
2022-09-05T07:20:22.291Z,19.20
2022-09-05T07:26:52.014Z,19.30
2022-09-05T07:32:35.545Z,19.20
2022-09-05T07:38:52.211Z,19.30
2022-09-05T07:44:54.270Z,19.40
2022-09-05T07:55:42.178Z,19.50
2022-09-05T08:03:28.045Z,19.90
2022-09-05T08:10:06.158Z,19.90
2022-09-05T08:16:10.369Z,20.00
2022-09-05T08:22:02.120Z,20.10
2022-09-05T08:28:06.667Z,20.40
2022-09-05T08:34:01.668Z,20.30
2022-09-05T08:40:11.041Z,20.50
2022-09-05T08:46:46.182Z,20.60
2022-09-05T08:52:31.444Z,20.80
2022-09-05T08:58:48.868Z,21.00
2022-09-05T09:05:01.857Z,21.20
2022-09-05T09:10:59.849Z,21.30
2022-09-05T09:17:07.122Z,21.50
2022-09-05T09:23:05.127Z,21.50
2022-09-05T09:29:06.309Z,21.70
2022-09-05T09:35:06.455Z,21.90
2022-09-05T09:41:30.718Z,22.10
2022-09-05T09:47:41.441Z,22.30
2022-09-05T09:53:58.451Z,22.50
2022-09-05T10:00:06.647Z,22.70
2022-09-05T10:10:34.660Z,22.70
2022-09-05T10:13:20.158Z,22.80
2022-09-05T10:26:24.758Z,23.20
2022-09-05T10:35:09.879Z,23.50
2022-09-05T10:38:44.993Z,23.60
2022-09-05T10:44:41.385Z,23.40
2022-09-05T10:50:42.695Z,24.00
2022-09-05T10:56:41.422Z,24.20
2022-09-05T11:02:45.756Z,24.50
2022-09-05T11:08:54.058Z,25.00
2022-09-05T11:14:52.695Z,25.30
2022-09-05T11:20:51.174Z,25.60
2022-09-05T11:27:23.595Z,25.60
2022-09-05T11:36:56.519Z,25.30
2022-09-05T11:40:42.557Z,24.80
2022-09-05T11:46:53.499Z,24.90
2022-09-05T11:53:31.323Z,24.90
2022-09-05T12:00:17.194Z,25.00
2022-09-05T12:06:37.626Z,24.80
2022-09-05T12:12:52.816Z,24.50
2022-09-05T12:19:14.199Z,24.40
2022-09-05T12:27:42.380Z,24.20
2022-09-05T12:40:54.813Z,24.30
2022-09-05T12:41:42.040Z,24.20
2022-09-05T12:44:46.847Z,24.30
2022-09-05T12:50:44.456Z,24.30
2022-09-05T13:00:39.783Z,24.40
2022-09-05T13:03:28.408Z,24.40
2022-09-05T13:09:32.295Z,24.40
2022-09-05T13:15:44.303Z,24.50
2022-09-05T13:21:48.393Z,24.80
2022-09-05T13:27:49.324Z,25.20
2022-09-05T13:38:15.760Z,25.80
2022-09-05T13:40:05.295Z,25.90
2022-09-05T13:46:11.689Z,26.30
2022-09-05T13:52:26.482Z,26.40
2022-09-05T13:58:36.188Z,26.60
2022-09-05T14:05:06.424Z,26.40
2022-09-05T14:11:44.864Z,26.70
2022-09-05T14:17:57.798Z,26.80
2022-09-05T14:23:56.020Z,26.10
2022-09-05T14:29:52.213Z,25.90
2022-09-05T14:37:54.322Z,25.60
2022-09-05T14:42:38.099Z,26.10
2022-09-05T14:48:45.843Z,26.40
2022-09-05T15:02:54.993Z,25.90
2022-09-05T15:07:29.499Z,25.80
2022-09-05T15:13:25.884Z,25.70
2022-09-05T15:20:05.262Z,25.60
2022-09-05T15:26:04.986Z,25.40
2022-09-05T15:32:17.808Z,25.60
2022-09-05T15:38:33.659Z,25.50
2022-09-05T15:45:08.793Z,25.30
2022-09-05T15:51:12.559Z,25.20
2022-09-05T15:57:15.276Z,25.10
2022-09-05T16:03:42.605Z,25.10
2022-09-05T16:10:35.758Z,25.00
2022-09-05T16:19:49.849Z,24.80
2022-09-05T16:23:31.627Z,24.80
2022-09-05T16:28:32.175Z,24.70
2022-09-05T16:34:32.306Z,24.50
2022-09-05T16:40:31.778Z,24.50
2022-09-05T16:46:32.137Z,24.40
2022-09-05T16:52:31.949Z,24.40
2022-09-05T16:58:31.974Z,24.30
2022-09-05T17:04:28.655Z,24.30
2022-09-05T17:10:27.057Z,24.20
2022-09-05T17:16:31.549Z,24.10
2022-09-05T17:26:55.481Z,24.00
2022-09-05T17:29:31.262Z,23.80
2022-09-05T17:35:17.055Z,23.70
2022-09-05T17:41:47.238Z,23.60
2022-09-05T17:47:49.712Z,23.40
2022-09-05T17:54:22.688Z,23.30
2022-09-05T18:01:01.243Z,23.20
2022-09-05T18:06:59.266Z,23.00
2022-09-05T18:19:36.913Z,22.70
2022-09-05T18:25:39.427Z,22.40
2022-09-05T18:32:01.914Z,22.50
2022-09-05T18:38:50.802Z,22.30
2022-09-05T18:44:50.246Z,22.20
2022-09-05T18:50:46.545Z,22.00
2022-09-05T18:57:12.126Z,21.90
2022-09-05T19:03:02.852Z,21.90
2022-09-05T19:09:03.208Z,21.90
2022-09-05T19:15:00.138Z,21.70
2022-09-05T19:21:12.590Z,21.70
2022-09-05T19:29:56.286Z,21.70
2022-09-05T19:37:02.248Z,21.50
2022-09-05T19:46:11.717Z,21.60
2022-09-05T19:47:42.609Z,21.40
2022-09-05T19:52:25.417Z,21.20
2022-09-05T19:58:24.813Z,21.20
2022-09-05T20:04:19.211Z,21.10
2022-09-05T20:10:25.946Z,21.20
2022-09-05T20:16:29.634Z,21.10
2022-09-05T20:22:49.265Z,21.10
2022-09-05T20:28:45.462Z,21.10
2022-09-05T20:36:40.141Z,20.90
2022-09-05T20:43:28.333Z,21.00
2022-09-05T20:48:48.979Z,21.00
2022-09-05T20:54:31.630Z,21.00
2022-09-05T20:59:47.526Z,20.90
2022-09-05T21:05:41.194Z,20.80
2022-09-05T21:11:36.256Z,20.70
2022-09-05T21:17:29.857Z,20.80
2022-09-05T21:23:29.631Z,20.70
2022-09-05T21:29:33.365Z,20.60
2022-09-05T21:35:35.219Z,20.60
2022-09-05T21:41:28.957Z,20.60
2022-09-05T21:47:49.622Z,20.40
2022-09-05T21:59:15.305Z,20.40
2022-09-05T22:00:07.159Z,20.30
2022-09-05T22:06:14.442Z,20.20
2022-09-05T22:12:30.010Z,20.00
2022-09-05T22:18:21.662Z,20.00
2022-09-05T22:24:16.354Z,20.00
2022-09-05T22:30:10.921Z,19.80
2022-09-05T22:36:04.106Z,19.80
2022-09-05T22:41:59.490Z,19.80
2022-09-05T22:47:53.539Z,19.60
2022-09-05T22:53:47.003Z,19.60
2022-09-05T22:59:41.663Z,19.70
2022-09-05T23:05:35.827Z,19.50
2022-09-05T23:11:29.135Z,19.60
2022-09-05T23:17:23.748Z,19.50
2022-09-05T23:23:16.896Z,19.40
2022-09-05T23:29:10.157Z,19.40
2022-09-05T23:35:04.894Z,19.40
2022-09-05T23:41:02.534Z,19.40
2022-09-05T23:46:55.821Z,19.30
2022-09-05T23:52:50.539Z,19.40
2022-09-05T23:58:43.776Z,19.40
